createdAt,value
2024-04-19T04:15:32.012Z,43.66
2024-04-19T04:16:53.642Z,43.56
2024-04-19T04:17:32.763Z,43.56
2024-04-19T04:18:32.480Z,43.56
2024-04-19T04:19:33.009Z,43.56
2024-04-19T04:20:33.123Z,43.44
2024-04-19T04:21:32.864Z,43.34
2024-04-19T04:22:32.879Z,43.34
2024-04-19T04:23:32.984Z,43.34
2024-04-19T04:24:33.170Z,43.24
2024-04-19T04:25:33.338Z,43.24
2024-04-19T04:26:33.476Z,43.14
2024-04-19T04:27:33.622Z,43.14
2024-04-19T04:28:33.724Z,43.12
2024-04-19T04:29:33.867Z,43.12
2024-04-19T04:30:34.023Z,43.02
2024-04-19T04:31:34.202Z,43.02
2024-04-19T04:32:34.400Z,43.02
2024-04-19T04:33:34.467Z,42.92
2024-04-19T04:34:34.565Z,42.92
2024-04-19T04:35:33.873Z,42.92
2024-04-19T04:36:34.934Z,42.92
2024-04-19T04:37:35.054Z,42.92
2024-04-19T04:38:35.076Z,43.02
2024-04-19T04:39:35.335Z,42.92
2024-04-19T04:40:35.336Z,42.92
2024-04-19T04:41:35.995Z,42.92
2024-04-19T04:42:38.916Z,43.02
2024-04-19T04:43:36.736Z,42.92
2024-04-19T04:44:35.878Z,42.92
2024-04-19T04:45:36.056Z,42.92
2024-04-19T04:46:36.090Z,42.92
2024-04-19T04:47:36.406Z,42.92
2024-04-19T04:48:36.919Z,42.92
2024-04-19T04:49:36.514Z,42.92
2024-04-19T04:50:36.665Z,42.92
2024-04-19T04:51:36.842Z,42.92
2024-04-19T04:52:36.960Z,42.82
2024-04-19T04:53:37.084Z,42.92
2024-04-19T04:54:37.295Z,42.82
2024-04-19T04:55:37.451Z,42.82
2024-04-19T04:56:37.486Z,42.92
2024-04-19T04:57:39.684Z,42.82
2024-04-19T04:58:38.757Z,42.82
2024-04-19T04:59:38.377Z,42.82
2024-04-19T05:00:39.098Z,42.82
2024-04-19T05:01:38.696Z,42.92
2024-04-19T05:02:38.345Z,42.80
2024-04-19T05:03:38.509Z,42.92
2024-04-19T05:04:38.623Z,42.82
2024-04-19T05:05:38.681Z,42.82
2024-04-19T05:06:38.922Z,42.82
2024-04-19T05:07:38.993Z,42.92
2024-04-19T05:08:39.149Z,42.82
2024-04-19T05:09:39.336Z,42.90
2024-04-19T05:10:39.426Z,42.92
2024-04-19T05:11:40.142Z,42.82
2024-04-19T05:12:39.778Z,42.82
2024-04-19T05:13:39.845Z,42.80
2024-04-19T05:14:39.944Z,42.90
2024-04-19T05:15:40.169Z,42.80
2024-04-19T05:16:40.258Z,42.82
2024-04-19T05:17:40.434Z,42.92
2024-04-19T05:18:40.601Z,43.02
2024-04-19T05:19:40.676Z,42.92
2024-04-19T05:20:40.822Z,42.92
2024-04-19T05:21:40.999Z,42.92
2024-04-19T05:22:41.089Z,43.02
2024-04-19T05:23:41.256Z,43.02
2024-04-19T05:24:41.876Z,42.92
2024-04-19T05:25:41.460Z,43.02
2024-04-19T05:26:41.623Z,43.00
2024-04-19T05:27:41.767Z,43.00
2024-04-19T05:28:41.934Z,42.90
2024-04-19T05:29:42.097Z,42.90
2024-04-19T05:30:42.178Z,42.92
2024-04-19T05:31:42.309Z,43.00
2024-04-19T05:32:42.449Z,43.00
2024-04-19T05:33:42.551Z,43.00
2024-04-19T05:34:42.650Z,43.00
2024-04-19T05:35:42.889Z,43.00
2024-04-19T05:36:42.962Z,42.90
2024-04-19T05:37:43.050Z,43.00
2024-04-19T05:38:43.264Z,43.10
2024-04-19T05:39:43.452Z,43.00
2024-04-19T05:40:43.732Z,43.00
2024-04-19T05:41:43.661Z,43.00
2024-04-19T05:42:44.293Z,43.00
2024-04-19T05:43:44.414Z,43.00
2024-04-19T05:44:44.118Z,43.12
2024-04-19T05:45:44.258Z,43.10
2024-04-19T05:46:44.281Z,43.10
2024-04-19T05:47:43.559Z,43.10
2024-04-19T05:51:01.888Z,43.10
2024-04-19T05:52:00.426Z,43.10
2024-04-19T05:53:01.512Z,43.10
2024-04-19T05:54:03.540Z,43.20
2024-04-19T05:55:02.505Z,43.20
2024-04-19T05:56:01.024Z,43.20
2024-04-19T05:57:01.114Z,43.20
2024-04-19T05:58:01.192Z,43.20
2024-04-19T05:59:01.544Z,43.20
2024-04-19T06:00:01.718Z,43.20
2024-04-19T06:01:01.732Z,43.20
2024-04-19T06:02:01.868Z,43.20
2024-04-19T06:03:02.040Z,43.30
2024-04-19T06:04:02.275Z,43.30
2024-04-19T06:05:02.191Z,43.20
2024-04-19T06:06:03.212Z,43.30
2024-04-19T06:07:02.647Z,43.30
2024-04-19T06:08:02.561Z,43.30
2024-04-19T06:09:03.650Z,43.40
2024-04-19T06:10:03.669Z,43.30
2024-04-19T06:11:02.962Z,43.30
2024-04-19T06:12:03.057Z,43.40
2024-04-19T06:13:03.293Z,43.50
2024-04-19T06:14:03.291Z,43.50
2024-04-19T06:15:03.505Z,43.40
2024-04-19T06:16:04.347Z,43.40
2024-04-19T06:17:04.519Z,43.40
2024-04-19T06:18:04.806Z,43.40
2024-04-19T06:19:05.294Z,43.40
2024-04-19T06:20:04.122Z,43.40
2024-04-19T06:21:05.383Z,43.50
2024-04-19T06:22:04.499Z,43.50
2024-04-19T06:23:05.251Z,43.40
2024-04-19T06:24:04.743Z,43.40
2024-04-19T06:25:04.805Z,43.40
2024-04-19T06:26:05.739Z,43.40
2024-04-19T06:27:06.007Z,43.40
2024-04-19T06:28:05.224Z,43.50
2024-04-19T06:29:07.580Z,43.50
2024-04-19T06:30:05.659Z,43.60
2024-04-19T06:31:05.809Z,43.50
2024-04-19T06:32:06.032Z,43.50
2024-04-19T06:33:05.906Z,43.50
2024-04-19T06:34:06.011Z,43.60
2024-04-19T06:35:06.093Z,43.60
2024-04-19T06:36:06.173Z,43.70
2024-04-19T06:37:07.442Z,43.70
2024-04-19T06:38:06.535Z,43.60
2024-04-19T06:39:06.778Z,43.60
2024-04-19T06:40:08.151Z,43.70
2024-04-19T06:41:08.263Z,43.80
2024-04-19T06:42:08.220Z,43.70
2024-04-19T06:43:07.286Z,43.80
2024-04-19T06:44:08.370Z,43.70
2024-04-19T06:45:10.038Z,43.80
2024-04-19T06:46:08.120Z,43.80
2024-04-19T06:47:08.846Z,43.90
2024-04-19T06:48:09.768Z,43.80
2024-04-19T06:49:09.265Z,43.80
2024-04-19T06:50:09.043Z,43.80
2024-04-19T06:51:08.210Z,43.90
2024-04-19T06:52:09.386Z,43.90
2024-04-19T06:53:08.777Z,43.90
2024-04-19T06:54:08.563Z,43.80
2024-04-19T06:55:09.917Z,43.90
2024-04-19T06:56:10.109Z,44.00
2024-04-19T06:57:09.188Z,44.00
2024-04-19T06:58:09.255Z,44.00
2024-04-19T06:59:10.435Z,43.90
2024-04-19T07:00:18.407Z,44.00
2024-04-19T07:01:17.867Z,44.00
2024-04-19T07:02:10.850Z,44.00
2024-04-19T07:03:10.498Z,44.10
2024-04-19T07:04:12.067Z,44.10
2024-04-19T07:05:10.172Z,44.20
2024-04-19T07:06:12.614Z,44.10
2024-04-19T07:07:10.379Z,44.20
2024-04-19T07:08:10.448Z,44.20
2024-04-19T07:09:10.718Z,44.40
2024-04-19T07:10:10.722Z,44.31
2024-04-19T07:11:10.794Z,44.40
2024-04-19T07:12:11.978Z,44.40
2024-04-19T07:13:11.267Z,44.40
2024-04-19T07:14:12.137Z,44.40
2024-04-19T07:15:11.302Z,44.51
2024-04-19T07:16:11.669Z,44.51
2024-04-19T07:17:11.669Z,44.40
2024-04-19T07:18:14.243Z,44.51
2024-04-19T07:19:12.199Z,44.40
2024-04-19T07:20:14.126Z,44.51
2024-04-19T07:21:13.244Z,44.40
2024-04-19T07:22:13.190Z,44.51
2024-04-19T07:23:12.582Z,44.40
2024-04-19T07:24:12.650Z,44.60
2024-04-19T07:25:12.782Z,44.51
2024-04-19T07:26:13.024Z,44.60
2024-04-19T07:27:13.875Z,44.60
2024-04-19T07:28:13.068Z,44.40
2024-04-19T07:29:40.330Z,44.51
2024-04-19T07:31:30.937Z,44.60
2024-04-19T07:32:30.171Z,44.68
2024-04-19T07:33:30.937Z,44.59
2024-04-19T07:34:30.401Z,44.68
2024-04-19T07:35:30.554Z,44.68
2024-04-19T07:36:30.678Z,44.68
2024-04-19T07:37:30.746Z,44.68
2024-04-19T07:38:30.985Z,44.79
2024-04-19T07:39:31.198Z,44.79
2024-04-19T07:40:31.145Z,44.89
2024-04-19T07:41:31.233Z,44.89
2024-04-19T07:42:31.605Z,44.79
2024-04-19T07:43:31.467Z,44.79
2024-04-19T07:44:31.921Z,45.09
2024-04-19T07:45:31.846Z,44.99
2024-04-19T07:46:32.016Z,44.89
2024-04-19T07:47:32.094Z,44.89
2024-04-19T07:48:32.146Z,44.89
2024-04-19T07:49:32.286Z,44.89
2024-04-19T07:50:33.312Z,44.89
2024-04-19T07:51:33.727Z,45.09
2024-04-19T07:52:32.803Z,44.89
2024-04-19T07:53:32.889Z,44.99
2024-04-19T07:54:33.138Z,45.06
2024-04-19T07:55:33.798Z,44.96
2024-04-19T07:56:33.359Z,44.96
2024-04-19T07:57:34.511Z,44.96
2024-04-19T07:58:34.938Z,45.06
2024-04-19T07:59:33.571Z,45.06
2024-04-19T08:00:33.990Z,45.06
2024-04-19T08:01:36.348Z,44.87
2024-04-19T08:02:34.892Z,45.17
2024-04-19T08:03:35.615Z,44.96
2024-04-19T08:04:35.304Z,45.06
2024-04-19T08:05:34.333Z,45.37
2024-04-19T08:06:34.595Z,45.26
2024-04-19T08:07:39.952Z,45.17
2024-04-19T08:08:36.666Z,45.17
2024-04-19T08:09:34.862Z,45.26
2024-04-19T08:10:35.414Z,45.26
2024-04-19T08:11:35.341Z,45.17
2024-04-19T08:12:36.229Z,45.17
2024-04-19T08:13:35.622Z,45.26
2024-04-19T08:14:36.739Z,45.45
2024-04-19T08:15:35.919Z,45.25
2024-04-19T08:16:36.079Z,45.45
2024-04-19T08:17:35.939Z,45.34
2024-04-19T08:18:37.006Z,45.45
2024-04-19T08:19:37.124Z,45.34
2024-04-19T08:20:37.276Z,45.65
2024-04-19T08:21:37.676Z,45.65
2024-04-19T08:22:36.578Z,45.65
2024-04-19T08:23:36.648Z,45.75
2024-04-19T08:24:37.602Z,45.84
2024-04-19T08:25:37.012Z,45.84
2024-04-19T08:26:37.143Z,45.95
2024-04-19T08:27:37.236Z,46.25
2024-04-19T08:28:37.340Z,46.25
2024-04-19T08:29:37.504Z,45.95
2024-04-19T08:30:38.009Z,46.04
2024-04-19T08:31:38.338Z,46.25
2024-04-19T08:32:38.080Z,46.15
2024-04-19T08:33:38.940Z,46.17
2024-04-19T08:34:39.038Z,46.55
2024-04-19T08:35:38.193Z,46.47
2024-04-19T08:36:40.091Z,46.55
2024-04-19T08:37:39.457Z,46.45
2024-04-19T08:38:38.603Z,46.35
2024-04-19T08:39:39.594Z,46.65
2024-04-19T08:40:41.894Z,46.35
2024-04-19T08:41:39.956Z,46.45
2024-04-19T08:42:39.229Z,46.55
2024-04-19T08:43:39.579Z,46.65
2024-04-19T08:44:39.552Z,46.55
2024-04-19T08:45:39.512Z,46.65
2024-04-19T08:46:40.448Z,46.45
2024-04-19T08:47:40.001Z,46.25
2024-04-19T08:48:40.171Z,46.55
2024-04-19T08:49:40.989Z,46.45
2024-04-19T08:50:40.098Z,46.45
2024-04-19T08:51:55.916Z,46.65
2024-04-19T08:53:08.253Z,46.45
2024-04-19T08:53:42.591Z,46.45
2024-04-19T08:54:43.221Z,46.35
2024-04-19T08:55:41.667Z,46.45
2024-04-19T08:56:41.027Z,46.65
2024-04-19T08:57:42.166Z,46.65
2024-04-19T08:58:44.241Z,46.65
2024-04-19T08:59:42.283Z,47.05
2024-04-19T09:00:41.545Z,46.75
2024-04-19T09:01:41.536Z,46.65
2024-04-19T09:02:41.890Z,46.65
2024-04-19T09:03:42.057Z,46.45
2024-04-19T09:04:42.109Z,46.55
2024-04-19T09:05:43.111Z,46.65
2024-04-19T09:06:45.245Z,46.55
2024-04-19T09:07:43.306Z,46.85
2024-04-19T09:08:42.689Z,47.05
2024-04-19T09:09:42.746Z,47.15
2024-04-19T09:13:12.643Z,46.55
2024-04-19T09:13:59.962Z,46.65
2024-04-19T09:15:00.003Z,46.85
2024-04-19T09:16:00.327Z,46.62
2024-04-19T09:17:00.337Z,46.95
2024-04-19T09:18:00.503Z,46.83
2024-04-19T09:19:00.524Z,47.03
2024-04-19T09:20:00.662Z,46.83
2024-04-19T09:21:00.930Z,46.83
2024-04-19T09:22:01.878Z,47.03
2024-04-19T09:23:01.178Z,47.23
2024-04-19T09:24:01.290Z,47.23
2024-04-19T09:25:01.713Z,47.13
2024-04-19T09:26:01.621Z,47.23
2024-04-19T09:27:13.835Z,47.33
2024-04-19T09:28:02.924Z,47.33
2024-04-19T09:29:01.918Z,47.33
2024-04-19T09:30:03.144Z,47.13
2024-04-19T09:31:02.220Z,47.13
2024-04-19T09:32:03.172Z,47.03
2024-04-19T09:33:02.803Z,46.93
2024-04-19T09:34:02.623Z,46.83
2024-04-19T09:35:02.795Z,47.13
2024-04-19T09:36:02.785Z,47.23
2024-04-19T09:37:02.845Z,47.03
2024-04-19T09:38:03.310Z,47.13
2024-04-19T09:39:03.214Z,47.03
2024-04-19T09:40:03.986Z,47.03
2024-04-19T09:41:03.516Z,47.13
2024-04-19T09:42:03.394Z,47.13
2024-04-19T09:43:05.197Z,47.03
2024-04-19T09:44:04.695Z,47.23
2024-04-19T09:45:04.054Z,47.23
2024-04-19T09:46:04.330Z,47.33
2024-04-19T09:47:04.371Z,47.33
2024-04-19T09:48:04.516Z,47.53
2024-04-19T09:49:05.609Z,47.23
2024-04-19T09:50:05.444Z,47.23
2024-04-19T09:51:05.578Z,47.03
2024-04-19T09:52:04.820Z,46.93
2024-04-19T09:53:04.850Z,46.93
2024-04-19T09:54:09.026Z,47.03
2024-04-19T09:55:05.027Z,47.13
2024-04-19T09:56:05.217Z,47.23
2024-04-19T09:57:05.593Z,47.63
2024-04-19T09:58:06.408Z,47.53
2024-04-19T09:59:05.729Z,47.43
2024-04-19T10:00:07.044Z,47.53
2024-04-19T10:01:06.986Z,47.43
2024-04-19T10:02:11.629Z,47.33
2024-04-19T10:03:07.329Z,47.43
2024-04-19T10:04:06.353Z,47.43
2024-04-19T10:05:07.470Z,47.23
2024-04-19T10:06:07.153Z,47.13
2024-04-19T10:07:06.602Z,47.13
2024-04-19T10:08:06.686Z,47.13
2024-04-19T10:09:06.825Z,47.43
2024-04-19T10:10:06.994Z,47.13
2024-04-19T10:11:07.150Z,47.23
2024-04-19T10:12:07.299Z,47.43
2024-04-19T10:13:07.345Z,47.13
2024-04-19T10:14:07.450Z,47.23
2024-04-19T10:15:07.659Z,47.63
2024-04-19T10:16:08.652Z,47.63
2024-04-19T10:17:07.949Z,47.53
2024-04-19T10:18:08.249Z,47.53
2024-04-19T10:30:01.047Z,47.65
2024-04-19T10:31:29.391Z,47.85
2024-04-19T10:32:01.308Z,48.05
2024-04-19T10:33:01.085Z,48.16
2024-04-19T10:34:00.874Z,47.96
2024-04-19T10:35:00.893Z,47.65
2024-04-19T10:36:01.090Z,47.85
2024-04-19T10:37:01.140Z,47.65
2024-04-19T10:38:01.372Z,47.55
2024-04-19T10:39:01.595Z,47.75
2024-04-19T10:40:01.516Z,47.55
2024-04-19T10:41:01.624Z,47.35
2024-04-19T10:42:02.654Z,47.45
2024-04-19T10:43:02.020Z,47.45
2024-04-19T10:44:02.106Z,47.53
2024-04-19T10:45:02.191Z,47.43
2024-04-19T10:46:03.053Z,47.63
2024-04-19T10:47:03.461Z,47.43
2024-04-19T10:48:02.669Z,47.43
2024-04-19T10:49:02.739Z,47.43
2024-04-19T10:50:02.855Z,47.53
2024-04-19T10:51:02.948Z,47.53
2024-04-19T10:52:03.144Z,47.43
2024-04-19T10:53:03.196Z,47.35
2024-04-19T10:54:03.304Z,47.35
2024-04-19T10:55:03.410Z,47.85
2024-04-19T10:56:03.545Z,47.65
2024-04-19T10:57:03.772Z,47.45
2024-04-19T10:58:03.824Z,47.55
2024-04-19T10:59:03.977Z,47.55
2024-04-19T11:00:04.465Z,47.85
2024-04-19T11:01:04.452Z,47.85
2024-04-19T11:02:04.472Z,47.75
2024-04-19T11:03:14.298Z,47.65
2024-04-19T11:04:05.724Z,47.55
2024-04-19T11:05:04.840Z,47.45
2024-04-19T11:06:04.956Z,47.55
2024-04-19T11:07:05.152Z,47.65
2024-04-19T11:08:05.224Z,47.85
2024-04-19T11:09:07.239Z,47.75
2024-04-19T11:10:05.735Z,47.65
2024-04-19T11:11:05.658Z,47.75
2024-04-19T11:12:05.714Z,47.75
2024-04-19T11:13:05.944Z,47.55
2024-04-19T11:14:06.034Z,47.73
2024-04-19T11:15:06.160Z,47.63
2024-04-19T11:16:06.381Z,47.53
2024-04-19T11:17:06.391Z,47.63
2024-04-19T11:18:07.511Z,47.33
2024-04-19T11:19:06.754Z,47.33
2024-04-19T11:20:06.841Z,47.33
2024-04-19T11:21:09.225Z,47.43
2024-04-19T11:22:08.049Z,47.43
2024-04-19T11:23:07.165Z,47.53
2024-04-19T11:24:07.301Z,47.43
2024-04-19T11:25:07.451Z,47.43
2024-04-19T11:26:07.635Z,47.43
2024-04-19T11:27:07.729Z,47.43
2024-04-19T11:28:07.820Z,47.43
2024-04-19T11:29:11.353Z,47.33
2024-04-19T11:30:09.175Z,47.33
2024-04-19T11:31:08.530Z,47.03
2024-04-19T11:32:08.365Z,46.91
2024-04-19T11:33:08.447Z,47.31
2024-04-19T11:34:08.891Z,47.31
2024-04-19T11:35:08.752Z,47.11
2024-04-19T11:36:08.904Z,47.11
2024-04-19T11:37:09.042Z,47.31
2024-04-19T11:38:09.123Z,47.11
2024-04-19T11:39:09.946Z,47.20
2024-04-19T11:40:12.485Z,47.31
2024-04-19T11:41:09.516Z,47.20
2024-04-19T11:42:09.672Z,47.00
2024-04-19T11:43:09.804Z,46.81
2024-04-19T11:44:10.027Z,46.91
2024-04-19T11:45:10.091Z,46.81
2024-04-19T11:46:10.182Z,47.00
2024-04-19T11:47:10.350Z,46.68
2024-04-19T11:48:10.606Z,46.88
2024-04-19T11:49:10.665Z,46.98
2024-04-19T11:50:10.729Z,46.68
2024-04-19T11:51:10.824Z,46.78
2024-04-19T11:52:11.089Z,46.68
2024-04-19T11:53:11.099Z,46.58
2024-04-19T11:54:12.203Z,46.68
2024-04-19T11:55:11.378Z,46.78
2024-04-19T11:56:11.540Z,46.70
2024-04-19T11:57:11.678Z,46.70
2024-04-19T11:58:11.872Z,46.81
2024-04-19T11:59:11.982Z,46.81
2024-04-19T12:00:12.138Z,47.20
2024-04-19T12:02:12.352Z,47.61
2024-04-19T12:03:12.498Z,47.71
2024-04-19T12:04:12.684Z,47.91
2024-04-19T12:05:12.713Z,47.91
2024-04-19T12:06:12.973Z,48.01
2024-04-19T12:07:12.903Z,47.91
2024-04-19T12:08:13.069Z,48.01
2024-04-19T12:09:13.182Z,48.01
2024-04-19T12:10:13.328Z,48.21
2024-04-19T12:11:13.490Z,48.33
2024-04-19T12:14:23.372Z,48.23
2024-04-19T12:15:22.434Z,48.33
2024-04-19T12:16:16.977Z,48.33
2024-04-19T12:16:42.367Z,48.33
2024-04-19T12:17:35.751Z,48.23
2024-04-19T12:18:36.351Z,48.13
2024-04-19T12:19:36.604Z,48.23
2024-04-19T12:20:46.820Z,48.23
2024-04-19T12:21:36.168Z,48.23
2024-04-19T12:22:37.923Z,48.23
2024-04-19T12:23:35.524Z,48.23
2024-04-19T12:24:38.684Z,48.23
2024-04-19T12:25:37.397Z,48.13
2024-04-19T12:26:35.918Z,48.13
2024-04-19T12:27:35.920Z,48.13
2024-04-19T12:28:35.971Z,48.13
2024-04-19T12:29:36.125Z,48.13
2024-04-19T12:30:37.783Z,48.03
2024-04-19T12:31:37.967Z,48.13
2024-04-19T12:32:38.192Z,48.13
2024-04-19T12:33:38.034Z,48.13
2024-04-19T12:34:39.551Z,48.23
2024-04-19T12:35:38.305Z,48.23
2024-04-19T12:36:38.544Z,48.23
2024-04-19T12:37:38.800Z,48.23
2024-04-19T12:38:38.512Z,48.13
2024-04-19T12:39:38.733Z,48.23
2024-04-19T12:40:42.096Z,48.16
2024-04-19T12:41:37.611Z,48.23
2024-04-19T12:42:39.362Z,48.23
2024-04-19T12:43:39.737Z,48.33
2024-04-19T12:44:39.266Z,48.33
2024-04-19T12:45:39.534Z,48.25
2024-04-19T12:46:42.302Z,48.25
2024-04-19T12:47:39.942Z,48.25
2024-04-19T12:48:40.317Z,48.25
2024-04-19T12:49:40.386Z,48.25
2024-04-19T12:50:40.503Z,48.25
2024-04-19T12:51:40.573Z,48.13
2024-04-19T12:52:41.791Z,48.13
2024-04-19T12:53:40.470Z,48.03
2024-04-19T12:54:40.731Z,47.93
2024-04-19T12:55:40.901Z,48.03
2024-04-19T12:56:41.084Z,47.93
2024-04-19T12:57:41.375Z,48.03
2024-04-19T12:58:43.016Z,47.93
2024-04-19T12:59:41.246Z,48.03
2024-04-19T13:00:41.522Z,48.03
2024-04-19T13:01:40.238Z,48.03
2024-04-19T13:02:41.877Z,48.16
2024-04-19T13:03:42.212Z,48.16
2024-04-19T13:04:42.300Z,48.05
2024-04-19T13:05:42.027Z,48.25
2024-04-19T13:06:42.423Z,48.16
2024-04-19T13:07:42.428Z,48.16
2024-04-19T13:08:42.649Z,48.25
2024-04-19T13:09:42.917Z,48.16
2024-04-19T13:10:43.028Z,48.25
2024-04-19T13:11:42.931Z,48.16
2024-04-19T13:12:43.079Z,48.25
2024-04-19T13:13:43.365Z,48.25
2024-04-19T13:14:43.493Z,48.25
2024-04-19T13:15:43.267Z,48.16
2024-04-19T13:16:43.471Z,48.16
2024-04-19T13:17:44.400Z,48.25
2024-04-19T13:18:43.863Z,48.16
2024-04-19T13:19:44.065Z,48.35
2024-04-19T13:20:42.413Z,48.25
2024-04-19T13:21:44.182Z,48.16
2024-04-19T13:22:42.622Z,48.16
2024-04-19T13:23:44.359Z,47.73
2024-04-19T13:24:42.953Z,47.08
2024-04-19T13:25:44.643Z,46.16
2024-04-19T13:26:44.854Z,45.31
2024-04-19T13:27:43.513Z,44.79
2024-04-19T13:28:43.666Z,44.37
2024-04-19T13:29:45.414Z,43.11
2024-04-19T13:30:44.018Z,42.15
2024-04-19T13:31:45.628Z,41.33
2024-04-19T13:32:44.192Z,40.72
2024-04-19T13:33:44.103Z,40.28
2024-04-19T13:34:45.854Z,39.98
2024-04-19T13:35:46.046Z,39.76
2024-04-19T13:36:46.304Z,39.25
2024-04-19T13:37:46.486Z,38.54
2024-04-19T13:38:46.655Z,38.87
2024-04-19T13:39:46.421Z,39.57
2024-04-19T13:40:46.576Z,39.48
2024-04-19T13:41:46.789Z,40.00
2024-04-19T13:42:47.176Z,40.94
2024-04-19T13:43:47.223Z,41.58
2024-04-19T13:44:46.935Z,42.10
2024-04-19T13:45:47.202Z,41.96
2024-04-19T13:46:47.394Z,41.24
2024-04-19T13:47:46.880Z,40.84
2024-04-19T13:48:47.666Z,41.14
2024-04-19T13:49:47.798Z,41.16
2024-04-19T13:50:48.014Z,41.77
2024-04-19T13:51:46.591Z,42.19
2024-04-19T13:52:46.729Z,42.51
2024-04-19T13:53:46.866Z,43.03
2024-04-19T13:54:50.955Z,43.45
2024-04-19T13:55:47.138Z,43.75
2024-04-19T13:56:47.257Z,43.87
2024-04-19T13:57:48.985Z,44.07
2024-04-19T13:58:47.568Z,43.43
2024-04-19T13:59:47.676Z,43.23
2024-04-19T14:00:47.847Z,43.55
2024-04-19T14:01:49.574Z,43.65
2024-04-19T14:02:48.022Z,43.35
2024-04-19T14:03:48.247Z,42.81
2024-04-19T14:04:49.862Z,42.81
2024-04-19T14:05:48.373Z,42.91
2024-04-19T14:06:50.155Z,42.71
2024-04-19T14:07:50.312Z,42.07
2024-04-19T14:08:50.092Z,41.66
2024-04-19T14:09:50.252Z,41.88
2024-04-19T14:10:50.514Z,41.77
2024-04-19T14:11:50.730Z,41.99
2024-04-19T14:12:49.852Z,42.19
2024-04-19T14:13:50.966Z,42.41
2024-04-19T14:14:51.183Z,42.83
2024-04-19T14:15:51.473Z,43.33
2024-04-19T14:16:51.217Z,43.55
2024-04-19T14:17:51.382Z,43.77
2024-04-19T14:18:54.311Z,44.27
2024-04-19T14:19:51.777Z,44.49
2024-04-19T14:20:52.001Z,44.62
2024-04-19T14:21:51.740Z,45.01
2024-04-19T14:22:51.908Z,45.21
2024-04-19T14:23:52.097Z,45.34
2024-04-19T14:24:54.304Z,45.43
2024-04-19T14:25:52.562Z,45.43
2024-04-19T14:26:52.748Z,45.64
2024-04-19T14:27:53.037Z,45.64
2024-04-19T14:28:52.716Z,45.64
2024-04-19T14:29:52.896Z,45.54
2024-04-19T14:30:52.352Z,45.54
2024-04-19T14:31:51.752Z,45.64
2024-04-19T14:32:51.987Z,45.64
2024-04-19T14:33:52.071Z,45.74
2024-04-19T14:34:53.723Z,45.76
2024-04-19T14:35:52.278Z,45.76
2024-04-19T14:36:52.457Z,45.86
2024-04-19T14:37:52.617Z,45.86
2024-04-19T14:38:52.712Z,45.96
2024-04-19T14:39:54.492Z,45.86
2024-04-19T14:40:54.600Z,45.86
2024-04-19T14:41:53.198Z,45.96
2024-04-19T14:42:54.914Z,46.16
2024-04-19T14:43:53.315Z,46.06
2024-04-19T14:44:55.079Z,46.06
2024-04-19T14:45:55.352Z,45.98
2024-04-19T14:46:55.962Z,46.08
2024-04-19T14:47:55.366Z,46.18
2024-04-19T14:48:55.475Z,46.18
2024-04-19T14:49:55.594Z,46.28
2024-04-19T14:50:55.831Z,46.28
2024-04-19T14:51:56.078Z,46.58
2024-04-19T14:53:03.425Z,46.48
2024-04-19T14:53:55.577Z,46.61
2024-04-19T14:54:54.580Z,46.70
2024-04-19T14:55:56.253Z,46.70
2024-04-19T14:56:56.472Z,46.61
2024-04-19T14:57:56.697Z,46.61
2024-04-19T14:59:03.409Z,46.50
2024-04-19T14:59:58.097Z,46.41
2024-04-19T15:00:56.799Z,46.41
2024-04-19T15:01:57.059Z,46.41
2024-04-19T15:02:57.188Z,46.41
2024-04-19T15:03:57.470Z,46.41
2024-04-19T15:04:57.678Z,46.41
2024-04-19T15:05:57.826Z,46.41
2024-04-19T15:06:56.401Z,46.41
2024-04-19T15:07:56.413Z,46.41
2024-04-19T15:08:56.524Z,46.50
2024-04-19T15:09:58.243Z,46.41
2024-04-19T15:10:56.765Z,46.50
2024-04-19T15:11:58.485Z,46.50
2024-04-19T15:12:57.143Z,46.50
2024-04-19T15:13:58.124Z,46.61
2024-04-19T15:14:57.104Z,46.50
2024-04-19T15:15:57.495Z,46.61
2024-04-19T15:16:59.192Z,46.61
2024-04-19T15:17:57.707Z,46.61
2024-04-19T15:18:59.435Z,46.50
2024-04-19T15:19:57.858Z,46.50
2024-04-19T15:20:59.604Z,46.50
2024-04-19T15:21:58.155Z,46.53
2024-04-19T15:22:58.276Z,46.42
2024-04-19T15:23:58.454Z,46.33
2024-04-19T15:24:58.592Z,46.42
2024-04-19T15:26:00.363Z,46.53
2024-04-19T15:27:00.504Z,46.53
2024-04-19T15:27:58.952Z,46.53
2024-04-19T15:28:59.018Z,46.42
2024-04-19T15:29:59.162Z,46.42
2024-04-19T15:30:59.337Z,46.33
2024-04-19T15:32:00.978Z,46.23
2024-04-19T15:32:59.633Z,46.23
2024-04-19T15:34:09.886Z,46.23
2024-04-19T15:35:00.969Z,46.23
2024-04-19T15:35:59.936Z,46.23
2024-04-19T15:37:01.615Z,46.12
2024-04-19T15:38:01.790Z,46.23
2024-04-19T15:39:00.068Z,46.23
2024-04-19T15:40:02.061Z,46.23
2024-04-19T15:41:00.654Z,46.23
2024-04-19T15:42:01.204Z,46.23
2024-04-19T15:43:02.384Z,46.12
2024-04-19T15:44:00.932Z,46.03
2024-04-19T15:45:02.652Z,46.12
2024-04-19T15:46:01.226Z,46.03
2024-04-19T15:47:01.329Z,46.12
2024-04-19T15:48:01.526Z,46.03
2024-04-19T15:49:01.575Z,46.03
2024-04-19T15:50:03.305Z,46.03
2024-04-19T15:51:01.849Z,46.12
2024-04-19T15:52:02.035Z,46.03
2024-04-19T15:53:03.687Z,46.03
2024-04-19T15:54:02.316Z,45.92
2024-04-19T15:55:03.992Z,46.03
2024-04-19T15:56:02.484Z,46.03
2024-04-19T15:57:02.626Z,45.92
2024-04-19T15:58:02.819Z,46.03
2024-04-19T15:59:04.487Z,46.03
2024-04-19T16:00:03.033Z,45.92
2024-04-19T16:01:03.198Z,45.92
2024-04-19T16:02:03.294Z,45.83
2024-04-19T16:03:05.032Z,45.92
2024-04-19T16:04:03.646Z,45.92
2024-04-19T16:05:03.662Z,45.83
2024-04-19T16:06:03.763Z,45.83
2024-04-19T16:07:03.965Z,45.84
2024-04-19T16:08:03.891Z,45.83
2024-04-19T16:09:04.982Z,45.75
2024-04-19T16:10:04.333Z,45.75
2024-04-19T16:11:04.404Z,45.65
2024-04-19T16:12:06.123Z,45.75
2024-04-19T16:13:04.671Z,45.84
2024-04-19T16:14:05.593Z,45.75
2024-04-19T16:15:04.687Z,45.75
2024-04-19T16:16:05.137Z,45.65
2024-04-19T16:17:06.777Z,45.65
2024-04-19T16:29:12.943Z,46.27
2024-04-19T16:30:12.651Z,46.37
2024-04-19T16:31:12.908Z,46.27
2024-04-19T16:32:13.104Z,46.37
2024-04-19T16:33:13.505Z,46.27
2024-04-19T16:34:13.659Z,46.27
2024-04-19T16:35:13.717Z,46.17
2024-04-19T16:36:13.937Z,46.07
2024-04-19T16:37:13.608Z,46.07
2024-04-19T16:38:13.828Z,46.07
2024-04-19T16:39:12.426Z,46.07
2024-04-19T16:40:12.703Z,46.07
2024-04-19T16:41:14.384Z,45.97
2024-04-19T16:42:14.601Z,45.97
2024-04-19T16:43:14.850Z,45.87
2024-04-19T16:44:14.534Z,45.87
2024-04-19T16:45:13.212Z,45.87
2024-04-19T16:46:14.933Z,45.97
2024-04-19T16:47:15.361Z,45.87
2024-04-19T16:48:15.357Z,45.77
2024-04-19T16:49:13.873Z,45.77
2024-04-19T16:50:14.027Z,45.77
2024-04-19T16:51:14.200Z,45.77
2024-04-19T16:52:15.908Z,45.77
2024-04-19T16:53:14.413Z,45.77
2024-04-19T16:54:14.590Z,45.87
2024-04-19T16:55:15.618Z,45.77
2024-04-19T16:56:18.367Z,45.77
2024-04-19T16:57:14.714Z,45.67
2024-04-19T16:58:16.431Z,45.67
2024-04-19T16:59:14.962Z,45.67
2024-04-19T17:00:15.447Z,45.57
2024-04-19T17:01:17.210Z,45.57
2024-04-19T17:02:17.329Z,45.67
2024-04-19T17:03:15.763Z,45.57
2024-04-19T17:04:16.039Z,45.57
2024-04-19T17:05:16.982Z,45.57
2024-04-19T17:06:16.156Z,45.47
2024-04-19T17:07:17.923Z,45.47
2024-04-19T17:08:17.343Z,45.47
2024-04-19T17:09:16.311Z,45.57
2024-04-19T17:10:16.660Z,45.57
2024-04-19T17:11:18.388Z,45.57
2024-04-19T17:12:19.898Z,45.57
2024-04-19T17:13:18.822Z,45.57
2024-04-19T17:14:17.173Z,45.47
2024-04-19T17:15:17.143Z,45.57
2024-04-19T17:16:17.443Z,45.59
2024-04-19T17:17:17.649Z,45.57
2024-04-19T17:18:17.739Z,45.49
2024-04-19T17:19:17.892Z,45.47
2024-04-19T17:20:19.541Z,45.49
2024-04-19T17:21:18.170Z,45.49
2024-04-19T17:22:18.304Z,45.49
2024-04-19T17:23:18.290Z,45.39
2024-04-19T17:24:18.633Z,45.39
2024-04-19T17:25:20.329Z,45.39
2024-04-19T17:26:18.620Z,45.39
2024-04-19T17:27:20.339Z,45.39
2024-04-19T17:28:20.485Z,45.39
2024-04-19T17:29:19.273Z,45.29
2024-04-19T17:30:19.347Z,45.29
2024-04-19T17:31:19.494Z,45.18
2024-04-19T17:32:21.238Z,45.29
2024-04-19T17:33:19.949Z,45.29
2024-04-19T17:34:19.998Z,45.29
2024-04-19T17:35:19.817Z,45.29
2024-04-19T17:36:20.013Z,45.29
2024-04-19T17:37:21.758Z,45.29
2024-04-19T17:38:20.487Z,45.18
2024-04-19T17:39:20.632Z,45.18